Stations météo

réclame
Mon MeteoGroup
Adra, Espagne (8486): Température de l'air & dewpoint: 17.05.2018 22:00:00 - 23.05.2018 22:00:00 (CEST)Adra, Espagne (8486): Vitesse du vent & gusts: 17.05.2018 22:00:00 - 23.05.2018 22:00:00 (CEST)Adra, Espagne (8486): Direction du vent: 17.05.2018 22:00:00 - 23.05.2018 22:00:00 (CEST)Adra, Espagne (8486): reduced air pressure: 17.05.2018 22:00:00 - 23.05.2018 22:00:00 (CEST)Adra, Espagne (8486): Quantités de précipitations: 17.05.2018 22:00:00 - 23.05.2018 22:00:00 (CEST)
Date & Time tt [°C] td [°C] ff [km/h] ff [knt] fx [km/h] fx [knt] dd ppp [hPa] rr [mm]
23.05.2018 22:00:00 21,5 13,7 5 3 20 11 WSW 1014,4 0,0
23.05.2018 21:00:00 20,7 15,0 14 8 31 17 W 1014,4 0,0
23.05.2018 20:00:00 21,3 14,7 21 12 37 20 W 1013,5 -
23.05.2018 19:00:00 23,4 13,0 3 1 13 7 SSE 1011,5 0,0
23.05.2018 18:00:00 23,2 14,2 4 2 9 5 SSE 1012,0 0,0
23.05.2018 17:00:00 24,8 12,7 3 2 8 4 S 1012,5 0,0
23.05.2018 16:00:00 24,7 12,6 4 2 11 6 SSE 1013,5 0,0
23.05.2018 15:00:00 23,8 13,9 7 4 13 7 SW 1014,4 0,0
23.05.2018 14:00:00 21,8 13,5 11 6 16 9 W 1015,5 -
23.05.2018 13:00:00 23,6 13,8 5 3 10 5 SW 1015,6 0,0
23.05.2018 12:00:00 21,7 13,6 9 5 14 8 W 1016,2 0,0
23.05.2018 11:00:00 21,4 13,9 7 4 11 6 WSW 1016,1 0,0
23.05.2018 10:00:00 19,8 13,5 5 3 13 7 WSW 1016,4 0,0
23.05.2018 09:00:00 20,2 11,4 4 2 8 5 W 1016,0 0,0
23.05.2018 08:00:00 18,8 11,9 3 2 12 7 WNW 1016,0 -
23.05.2018 07:00:00 18,7 11,8 7 4 15 8 E 1016,2 0,0
23.05.2018 06:00:00 17,8 12,0 1 0 8 5 ENE 1016,4 0,0
23.05.2018 05:00:00 18,2 12,8 1 1 10 6 E 1016,4 0,0
23.05.2018 04:00:00 18,9 12,8 5 3 12 6 E 1016,0 0,0
23.05.2018 03:00:00 18,5 14,1 3 1 9 5 ENE 1016,6 0,0
23.05.2018 02:00:00 18,0 15,6 0 0 4 2 NNE 1017,1 -
23.05.2018 01:00:00 18,2 16,0 1 1 5 3 N 1017,1 0,0
23.05.2018 00:00:00 18,7 16,5 3 1 7 4 WSW 1016,9 0,0
22.05.2018 23:00:00 19,0 16,6 4 2 10 5 SE 1016,1 0,0
22.05.2018 22:00:00 19,5 16,1 1 1 5 3 SSW 1015,2 0,0
22.05.2018 21:00:00 19,7 15,8 4 2 12 7 WSW 1014,8 0,0
22.05.2018 20:00:00 20,4 16,2 8 4 15 8 SW 1014,5 -
22.05.2018 19:00:00 21,5 17,1 6 3 18 10 SSW 1013,6 0,0
22.05.2018 18:00:00 21,0 16,2 11 6 21 11 SW 1014,0 0,0
22.05.2018 17:00:00 22,0 16,5 8 4 17 9 SW 1013,6 0,0
22.05.2018 16:00:00 21,4 16,4 9 5 18 10 SW 1014,1 0,0
22.05.2018 15:00:00 21,6 16,1 7 4 14 8 SW 1014,4 0,0
22.05.2018 14:00:00 21,6 16,6 7 4 17 9 SW 1014,9 -
22.05.2018 13:00:00 20,3 16,1 10 6 18 10 SW 1015,2 0,0
22.05.2018 12:00:00 21,6 16,3 5 3 13 7 SSW 1014,8 0,0
22.05.2018 11:00:00 20,9 16,3 4 2 11 6 SSE 1014,7 0,0
22.05.2018 10:00:00 20,9 15,9 4 2 11 6 SSE 1014,8 0,0
22.05.2018 09:00:00 20,3 13,8 2 1 5 3 WSW 1014,5 0,0
22.05.2018 08:00:00 17,7 12,5 2 1 8 4 NE 1014,6 -
22.05.2018 07:00:00 16,4 12,0 1 1 13 7 NNE 1014,7 0,0
22.05.2018 06:00:00 17,1 14,9 3 1 8 4 N 1014,1 0,0
22.05.2018 05:00:00 16,8 14,0 1 1 5 3 ENE 1014,1 0,0
22.05.2018 04:00:00 16,8 14,6 0 0 8 4 N 1014,3 0,0
22.05.2018 03:00:00 17,0 15,5 3 2 8 5 WNW 1014,4 0,0
22.05.2018 02:00:00 17,7 16,0 3 2 8 5 WNW 1014,6 -
22.05.2018 01:00:00 17,9 15,5 1 1 8 4 WNW 1014,7 0,0
22.05.2018 00:00:00 18,0 15,8 6 3 16 9 W 1014,7 0,0
21.05.2018 23:00:00 18,4 16,0 12 7 20 11 W 1014,2 0,0
21.05.2018 22:00:00 18,5 16,1 16 8 27 14 W 1013,4 0,0
21.05.2018 21:00:00 18,9 15,8 20 11 30 16 W 1013,2 0,0
21.05.2018 20:00:00 19,2 15,3 18 10 31 17 WSW 1012,7 -
21.05.2018 19:00:00 19,4 16,0 19 11 29 15 WSW 1012,8 0,0
21.05.2018 18:00:00 19,7 15,8 18 10 26 14 WSW 1012,4 0,0
21.05.2018 17:00:00 20,4 16,2 13 7 22 12 SW 1011,8 0,0
21.05.2018 16:00:00 20,0 15,6 13 7 22 12 WSW 1012,6 0,0
21.05.2018 15:00:00 20,0 15,6 9 5 15 8 SW 1013,2 0,0
21.05.2018 14:00:00 20,0 15,4 9 5 16 9 SW 1013,5 -
21.05.2018 13:00:00 21,2 15,7 6 3 14 7 SW 1013,2 0,0
21.05.2018 12:00:00 20,4 16,0 5 3 10 5 SSE 1013,1 0,0
21.05.2018 11:00:00 20,2 15,2 4 2 9 5 SSE 1013,3 0,0
21.05.2018 10:00:00 19,0 14,0 5 3 13 7 SE 1013,6 0,0
21.05.2018 09:00:00 20,0 13,5 2 1 9 5 E 1013,2 0,0
21.05.2018 08:00:00 17,5 13,5 1 0 7 4 N 1013,8 -
21.05.2018 07:00:00 16,3 13,3 1 1 6 4 ENE 1014,0 0,0
21.05.2018 06:00:00 16,5 13,8 0 0 6 3 N 1014,1 0,0
21.05.2018 05:00:00 16,9 14,5 1 0 6 3 NE 1013,6 0,0
21.05.2018 04:00:00 16,8 13,6 3 2 5 3 N 1013,8 0,0
21.05.2018 03:00:00 16,8 13,6 2 1 4 2 N 1013,9 0,0
21.05.2018 02:00:00 17,7 14,2 1 0 4 2 NE 1014,3 -
21.05.2018 01:00:00 17,8 14,5 1 1 9 5 NNW 1014,4 0,0
21.05.2018 00:00:00 18,7 15,3 0 0 8 4 S 1014,5 0,0
20.05.2018 23:00:00 18,4 15,1 6 4 10 5 W 1014,4 0,0
20.05.2018 22:00:00 18,7 15,5 7 4 12 7 W 1014,1 0,0
20.05.2018 21:00:00 18,7 15,2 10 5 18 10 W 1013,9 0,0
20.05.2018 20:00:00 19,1 15,0 13 7 18 10 W 1013,8 -
20.05.2018 19:00:00 19,4 14,9 9 5 16 8 SW 1013,7 0,0
20.05.2018 18:00:00 19,8 14,6 9 5 14 8 SW 1013,1 0,0
20.05.2018 17:00:00 20,4 15,0 3 2 9 5 SSW 1013,4 0,0
20.05.2018 16:00:00 21,4 15,7 2 1 15 8 S 1013,8 0,0
20.05.2018 15:00:00 20,1 14,7 9 5 16 9 SW 1015,0 0,0
20.05.2018 14:00:00 22,7 16,0 5 3 15 8 S 1014,2 -
20.05.2018 13:00:00 21,8 16,3 5 3 13 7 SSW 1014,8 0,0
20.05.2018 12:00:00 20,8 16,4 4 2 11 6 SSE 1015,1 0,0
20.05.2018 11:00:00 20,1 15,1 4 2 8 4 SSE 1015,3 0,0
20.05.2018 10:00:00 19,1 14,1 5 3 9 5 SE 1015,6 0,0
20.05.2018 09:00:00 18,6 12,1 5 3 9 5 ESE 1015,8 0,0
20.05.2018 08:00:00 17,2 12,7 1 0 6 4 ENE 1016,3 -
20.05.2018 07:00:00 16,5 12,2 1 1 9 5 ENE 1016,4 0,0
20.05.2018 06:00:00 16,1 11,9 2 1 7 4 NE 1016,3 0,0
20.05.2018 05:00:00 16,6 12,5 1 1 5 3 N 1016,1 0,0
20.05.2018 04:00:00 16,7 12,4 2 1 6 3 N 1016,5 0,0
20.05.2018 03:00:00 16,6 12,7 3 2 5 3 N 1016,9 0,0
20.05.2018 02:00:00 17,0 13,0 2 1 5 3 N 1017,4 -
20.05.2018 01:00:00 17,0 12,7 2 1 4 2 N 1017,5 0,0
20.05.2018 00:00:00 17,7 13,9 1 1 12 6 N 1017,6 0,0
19.05.2018 23:00:00 18,2 14,3 9 5 13 7 W 1017,2 0,0
19.05.2018 22:00:00 18,3 15,0 6 3 9 5 W 1016,2 0,0
19.05.2018 21:00:00 18,9 14,8 5 3 9 5 NW 1016,3 0,0
19.05.2018 20:00:00 19,1 14,8 5 3 10 5 SW 1016,3 -
19.05.2018 19:00:00 19,2 14,6 5 3 10 5 SW 1016,4 0,0
19.05.2018 18:00:00 19,9 14,5 2 1 7 4 S 1016,2 0,0
19.05.2018 17:00:00 19,4 14,0 4 2 8 5 SSE 1016,5 0,0
19.05.2018 16:00:00 21,7 14,8 3 2 9 5 S 1016,1 0,0
19.05.2018 15:00:00 20,5 14,1 4 2 10 5 S 1016,4 0,0
19.05.2018 14:00:00 22,7 14,5 4 2 12 7 SSW 1016,5 -
19.05.2018 13:00:00 21,3 13,9 6 3 12 6 SW 1016,9 0,0
19.05.2018 12:00:00 21,1 13,8 3 2 10 6 S 1017,2 0,0
19.05.2018 11:00:00 22,3 14,4 2 1 9 5 S 1016,8 0,0
19.05.2018 10:00:00 19,3 12,7 4 2 6 4 SSE 1017,2 0,0
19.05.2018 09:00:00 19,4 12,4 2 1 6 3 SSE 1016,7 0,0
19.05.2018 08:00:00 17,1 12,2 0 0 6 3 N 1017,1 -
19.05.2018 07:00:00 15,9 11,4 2 1 5 3 N 1017,0 0,0
19.05.2018 06:00:00 16,8 11,3 1 1 9 5 ENE 1016,6 0,0
19.05.2018 05:00:00 16,8 11,7 2 1 9 5 N 1016,8 0,0
19.05.2018 04:00:00 16,5 12,4 2 1 7 4 ENE 1017,0 0,0
19.05.2018 03:00:00 17,0 13,0 1 1 6 4 N 1017,6 0,0
19.05.2018 02:00:00 16,8 12,7 2 1 9 5 N 1018,1 -
19.05.2018 01:00:00 17,5 13,3 1 1 5 3 NNE 1018,0 0,0
19.05.2018 00:00:00 17,8 13,6 2 1 7 4 N 1017,9 0,0
18.05.2018 23:00:00 17,8 13,4 2 1 8 5 NNE 1017,4 0,0
18.05.2018 22:00:00 18,5 13,4 3 1 8 4 NE 1016,6 0,0
18.05.2018 21:00:00 18,6 13,7 2 1 5 3 SSE 1016,4 0,0
18.05.2018 20:00:00 20,3 13,9 2 1 7 4 S 1015,6 -
18.05.2018 19:00:00 20,4 13,9 3 2 8 4 SW 1015,7 0,0
18.05.2018 18:00:00 20,2 14,1 3 2 11 6 S 1016,2 0,0
18.05.2018 17:00:00 20,2 13,7 5 3 10 6 W 1015,9 0,0
18.05.2018 16:00:00 19,3 13,9 7 4 15 8 WSW 1017,2 0,0
18.05.2018 15:00:00 21,7 14,3 4 2 12 7 SSW 1016,1 0,0
18.05.2018 14:00:00 20,6 14,2 5 3 11 6 SW 1017,1 -
18.05.2018 13:00:00 21,9 14,8 4 2 11 6 S 1016,9 0,0
18.05.2018 12:00:00 21,7 14,8 3 1 11 6 S 1016,7 0,0
18.05.2018 11:00:00 20,0 14,3 5 3 10 5 SSW 1017,0 0,0
18.05.2018 10:00:00 19,1 13,9 4 2 7 4 SW 1017,0 0,0
18.05.2018 09:00:00 18,7 13,8 1 0 3 2 SSE 1016,5 0,0
18.05.2018 08:00:00 16,4 13,5 0 0 5 3 N 1017,3 -
18.05.2018 07:00:00 15,2 12,3 1 0 6 3 NW 1017,5 0,0
18.05.2018 06:00:00 15,4 12,5 1 0 5 3 N 1017,4 0,0
18.05.2018 05:00:00 15,3 12,2 2 1 6 3 N 1017,2 0,0
18.05.2018 04:00:00 15,9 12,6 2 1 6 3 N 1017,0 0,0
18.05.2018 03:00:00 15,9 12,4 3 1 5 3 N 1017,2 0,0
18.05.2018 02:00:00 16,0 12,2 2 1 6 3 N 1017,7 -
18.05.2018 01:00:00 16,8 13,0 4 2 9 5 W 1018,1 0,0
18.05.2018 00:00:00 17,0 12,7 0 0 6 4 WNW 1018,2 0,0
17.05.2018 23:00:00 17,7 13,3 3 1 11 6 ENE 1017,7 0,0
17.05.2018 22:00:00 17,7 13,5 2 1 12 6 ENE 1016,7 0,0

tt = Température de l'air
td = dewpoint
ff = Vitesse du vent
fx = gusts
dd = Direction du vent
ppp = reduced air pressure
rr = Quantités de précipitations

stations d'obs. à proximité